Flight Track Log - Related Links

Times and Time Zones

All times are in EST time to prevent confusion due to time zone crossing. See the N9228V flight status page for this flight to view local times or setup timezone preferences in your user account.


Time Position Orientation Groundspeed Altitude Reporting Facility
EST Latitude Longitude Course Direction KTS MPH feet Rate Location/Type
Fri 08:34:20 PM 40.2333 -85.4333 323° Northwest 77 89 2,600  Level Indianapolis TRACON
Fri 08:35:08 PM 40.2500 -85.4500 323° Northwest 86 99 3,000 449 Climbing Indianapolis TRACON
Fri 08:37:00 PM 40.2607 -85.3810 79° East  Level FlightAware Approximate
Fri 08:38:47 PM 40.2889 -85.3125 60° Northeast 115 132 4,600  Level Chicago Center
Fri 08:39:49 PM 40.3061 -85.2697 62° Northeast 111 128 5,100 194 Climbing Chicago Center
Fri 08:40:51 PM 40.3194 -85.2286 67° East 114 131 5,000 -48 Descending Chicago Center
Fri 08:41:53 PM 40.3336 -85.1847 67° East 120 138 5,000 -48 Level Chicago Center
Fri 08:42:55 PM 40.3489 -85.1417 65° Northeast 125 144 4,900  Descending Chicago Center
Fri 08:43:27 PM 40.3567 -85.1186 66° East 133 153 5,000 97 Climbing Indianapolis Center
Fri 08:44:00 PM 40.3421 -85.1392 60° Northeast  Level Estimated
Fri 08:44:59 PM 40.3756 -85.0511 70° East 131 151 5,100  Level Chicago Center
Fri 08:46:01 PM 40.3936 -84.9931 68° East 136 157 5,000  Descending Chicago Center
Fri 08:46:44 PM 40.4019 -84.9619 71° East 117 135 5,100 115 Climbing Indianapolis Center
Fri 08:47:45 PM 40.4172 -84.9125 68° East 142 163 5,200 49 Climbing Indianapolis Center
Fri 08:48:46 PM 40.4364 -84.8611 64° Northeast 141 162 5,200 -98 Level Indianapolis Center
Fri 08:49:48 PM 40.4531 -84.8181 63° Northeast 140 161 5,000 -49 Descending Indianapolis Center
Fri 08:50:49 PM 40.4708 -84.7619 67° East 145 167 5,100 49 Climbing Indianapolis Center
Fri 08:51:51 PM 40.4867 -84.7092 68° East 154 177 5,100  Level Indianapolis Center
Fri 08:52:52 PM 40.5044 -84.6528 67° East 155 178 5,100 -49 Level Indianapolis Center
Fri 08:53:53 PM 40.5208 -84.5939 70° East 154 177 5,000 -49 Descending Indianapolis Center
Fri 08:54:55 PM 40.5369 -84.5411 68° East 155 178 5,000 49 Level Indianapolis Center
Fri 08:55:56 PM 40.5533 -84.4889 68° East 155 178 5,100  Climbing Indianapolis Center
Fri 08:56:57 PM 40.5733 -84.4381 63° Northeast 154 177 5,000 -98 Descending Indianapolis Center
Fri 08:57:59 PM 40.5928 -84.3858 64° Northeast 157 181 4,900 -49 Descending Indianapolis Center
Fri 08:59:00 PM 40.6100 -84.3353 66° East 156 180 4,900 -295 Level Indianapolis Center
Fri 09:00:01 PM 40.6264 -84.2803 69° East 157 181 4,300 -488 Descending Indianapolis Center
Fri 09:01:03 PM 40.6458 -84.2156 68° East 160 184 3,900 -387 Descending Indianapolis Center
Fri 09:03:00 PM 40.6609 -84.1287 69° East  Level FlightAware Approximate
Fri 09:10:00 PM 40.7000 -84.0167 57° Northeast  Level FlightAware Approximate
Fri 09:11:00 PM 40.7075 -84.0271 57° Northeast  Level Estimated

Login

Don't have an account? Register now (free) for customized features, flight alerts, and more!